Time;durP1;ratioP1;P1;durP2;ratioP2;P2;SDS_P1;SDS_P2;PMS_P1;PMS_P2;Temp;Humidity;BMP_temperature;BMP_pressure;BME280_temperature;BME280_humidity;BME280_pressure;Samples;Min_cycle;Max_cycle;Signal;HPM_P1;HPM_P2
2022/01/06 13:53:31;;;;;;;0.00;0.00;;;5.90;99.90;;;;;;6188065;23;20040;-68
2022/01/06 13:56:11;;;;;;;0.00;0.00;;;5.90;99.90;;;;;;6188629;23;20020;-66
2022/01/06 13:58:45;;;;;;;0.00;0.00;;;5.80;99.90;;;;;;6189508;23;19985;-68
2022/01/06 14:01:13;;;;;;;0.00;0.00;;;5.90;99.90;;;;;;6187627;23;20290;-69
2022/01/06 14:03:40;;;;;;;0.00;0.00;;;5.90;99.90;;;;;;6188016;23;20016;-68
2022/01/06 14:06:07;;;;;;;0.00;0.00;;;5.80;99.90;;;;;;6188078;23;19993;-68
2022/01/06 14:08:34;;;;;;;0.00;0.00;;;5.90;99.90;;;;;;6187674;23;19997;-68
2022/01/06 14:11:01;;;;;;;0.00;0.00;;;6.00;99.90;;;;;;6189822;23;20013;-68
2022/01/06 14:13:27;;;;;;;0.00;0.00;;;5.90;99.90;;;;;;6189155;23;19989;-67
2022/01/06 14:15:53;;;;;;;0.00;0.00;;;5.90;99.90;;;;;;6189265;23;20027;-69
2022/01/06 14:18:18;;;;;;;0.00;0.00;;;5.90;99.90;;;;;;6187443;23;20001;-71
2022/01/06 14:20:45;;;;;;;0.00;0.00;;;5.80;99.90;;;;;;6187312;23;20248;-69
2022/01/06 14:23:14;;;;;;;0.00;0.00;;;5.80;99.90;;;;;;6188732;23;19992;-70
2022/01/06 14:25:45;;;;;;;0.00;0.00;;;5.70;99.90;;;;;;6189869;23;20028;-68
2022/01/06 14:28:13;;;;;;;0.00;0.00;;;5.70;99.90;;;;;;6188901;23;20052;-71
2022/01/06 14:30:39;;;;;;;0.00;0.00;;;5.60;99.90;;;;;;6189525;23;20043;-70
2022/01/06 14:33:06;;;;;;;0.00;0.00;;;5.40;99.90;;;;;;6190593;23;20161;-70
2022/01/06 14:35:33;;;;;;;0.00;0.00;;;5.40;99.90;;;;;;6190694;23;20346;-73
2022/01/06 14:38:00;;;;;;;0.00;0.00;;;5.30;99.90;;;;;;6191463;23;20229;-69
2022/01/06 14:40:26;;;;;;;0.00;0.00;;;5.30;99.90;;;;;;6190675;23;19989;-79
2022/01/06 14:42:53;;;;;;;0.00;0.00;;;5.20;99.90;;;;;;6191334;23;20301;-68
2022/01/06 14:45:19;;;;;;;0.00;0.00;;;5.20;99.90;;;;;;6190345;23;20000;-70
2022/01/06 14:47:45;;;;;;;0.00;0.00;;;5.20;99.90;;;;;;6189467;23;19989;-69
2022/01/06 14:50:11;;;;;;;0.00;0.00;;;5.10;99.90;;;;;;6190426;23;20044;-68
2022/01/06 14:52:41;;;;;;;0.00;0.00;;;5.00;99.90;;;;;;6191269;23;20048;-69
2022/01/06 14:55:08;;;;;;;0.00;0.00;;;5.00;99.90;;;;;;6191120;23;20073;-69
2022/01/06 14:57:34;;;;;;;0.00;0.00;;;4.90;99.90;;;;;;6162876;23;20007;-67
2022/01/06 14:59:59;;;;;;;0.00;0.00;;;4.70;99.90;;;;;;6191258;23;19989;-67
2022/01/06 15:02:25;;;;;;;0.00;0.00;;;4.70;99.90;;;;;;6190131;23;19989;-71
2022/01/06 15:07:35;;;;;;;0.00;0.00;;;4.60;99.90;;;;;;6190814;23;20055;-67
2022/01/06 15:10:02;;;;;;;0.00;0.00;;;4.50;99.90;;;;;;6164512;23;20250;-68
2022/01/06 15:12:28;;;;;;;0.00;0.00;;;4.70;99.90;;;;;;6163968;23;20146;-67
2022/01/06 15:14:54;;;;;;;0.00;0.00;;;4.60;99.90;;;;;;6190880;23;20040;-66
2022/01/06 15:17:19;;;;;;;0.00;0.00;;;4.60;99.90;;;;;;6163670;23;19997;-67
2022/01/06 15:19:45;;;;;;;0.00;0.00;;;4.50;99.90;;;;;;6190721;23;19989;-70
2022/01/06 15:22:11;;;;;;;0.00;0.00;;;4.40;99.90;;;;;;6190241;23;20318;-68
2022/01/06 15:24:37;;;;;;;0.00;0.00;;;4.40;99.90;;;;;;6191071;23;19996;-68
2022/01/06 15:27:03;;;;;;;0.00;0.00;;;4.50;99.90;;;;;;6190832;23;20208;-69
2022/01/06 15:29:29;;;;;;;0.00;0.00;;;4.40;99.90;;;;;;6164046;23;19993;-68
2022/01/06 15:31:54;;;;;;;0.00;0.00;;;4.30;99.90;;;;;;6191126;23;20012;-68
2022/01/06 15:34:20;;;;;;;0.00;0.00;;;4.30;99.90;;;;;;6163495;23;20092;-71
2022/01/06 15:36:46;;;;;;;0.00;0.00;;;4.30;99.90;;;;;;6190861;23;20052;-69
2022/01/06 15:39:12;;;;;;;0.00;0.00;;;4.30;99.90;;;;;;6190444;23;20122;-70
2022/01/06 15:41:37;;;;;;;0.00;0.00;;;4.20;99.90;;;;;;6191179;23;20037;-69
2022/01/06 15:44:22;;;;;;;0.00;0.00;;;4.20;99.90;;;;;;6190497;23;19989;-69
2022/01/06 15:46:50;;;;;;;0.00;0.00;;;4.20;99.90;;;;;;6164473;23;19999;-70
2022/01/06 15:49:16;;;;;;;0.00;0.00;;;4.10;99.90;;;;;;6190249;23;20076;-69
2022/01/06 15:51:42;;;;;;;0.00;0.00;;;4.10;99.90;;;;;;6190454;23;20288;-69
2022/01/06 15:54:07;;;;;;;0.00;0.00;;;4.10;99.90;;;;;;6190621;23;20222;-68
2022/01/06 15:56:34;;;;;;;0.00;0.00;;;4.20;99.90;;;;;;6190293;23;19996;-69
2022/01/06 15:59:00;;;;;;;0.00;0.00;;;4.10;99.90;;;;;;6190792;23;19993;-70
2022/01/06 16:06:52;;;;;;;0.00;0.00;;;4.10;99.90;;;;;;6111198;23;19998;-68
2022/01/06 16:09:17;;;;;;;0.00;0.00;;;4.00;99.90;;;;;;6163738;23;20024;-69
2022/01/06 16:11:43;;;;;;;0.00;0.00;;;4.00;99.90;;;;;;6190273;23;20386;-70
2022/01/06 16:14:09;;;;;;;0.00;0.00;;;4.00;99.90;;;;;;6190524;23;19989;-70
2022/01/06 16:16:34;;;;;;;0.00;0.00;;;4.00;99.90;;;;;;6163644;23;20302;-69
2022/01/06 16:19:00;;;;;;;0.00;0.00;;;4.00;99.90;;;;;;6190190;23;20000;-71
2022/01/06 16:21:27;;;;;;;0.00;0.00;;;4.00;99.90;;;;;;6189581;23;20044;-71
2022/01/06 16:23:53;;;;;;;0.00;0.00;;;4.00;99.90;;;;;;6190357;23;20192;-70
2022/01/06 16:26:19;;;;;;;0.00;0.00;;;3.90;99.90;;;;;;6189587;23;20279;-69
2022/01/06 16:28:47;;;;;;;0.00;0.00;;;3.90;99.90;;;;;;6190278;23;20192;-69
2022/01/06 16:31:12;;;;;;;0.00;0.00;;;3.90;99.90;;;;;;6163343;23;20001;-69
2022/01/06 16:33:43;;;;;;;0.00;0.00;;;3.90;99.90;;;;;;6190417;23;19985;-72
2022/01/06 16:36:10;;;;;;;0.00;0.00;;;3.90;99.90;;;;;;6185614;23;19989;-68
2022/01/06 16:38:36;;;;;;;0.00;0.00;;;3.90;99.90;;;;;;6189980;23;19985;-69
2022/01/06 16:41:03;;;;;;;0.00;0.00;;;3.90;99.90;;;;;;6190664;23;20023;-69
2022/01/06 16:43:29;;;;;;;0.00;0.00;;;3.90;99.90;;;;;;6189379;23;19996;-68
2022/01/06 16:45:56;;;;;;;0.00;0.00;;;3.80;99.90;;;;;;6189924;23;20008;-68
2022/01/06 16:48:22;;;;;;;0.00;0.00;;;3.80;99.90;;;;;;6163426;23;20283;-69
2022/01/06 16:50:47;;;;;;;0.00;0.00;;;3.80;99.90;;;;;;6190145;23;20049;-69
2022/01/06 16:53:14;;;;;;;0.00;0.00;;;3.80;99.90;;;;;;6189661;23;19993;-69
2022/01/06 16:55:40;;;;;;;0.00;0.00;;;3.80;99.90;;;;;;6189654;23;20056;-67
2022/01/06 16:58:13;;;;;;;0.00;0.00;;;3.80;99.90;;;;;;6190043;23;20039;-69
2022/01/06 17:00:39;;;;;;;0.00;0.00;;;3.70;99.90;;;;;;6189911;23;19997;-69
2022/01/06 17:03:06;;;;;;;0.00;0.00;;;3.70;99.90;;;;;;6189290;23;20028;-68
2022/01/06 17:05:35;;;;;;;0.00;0.00;;;3.70;99.90;;;;;;6163204;23;20004;-69
2022/01/06 17:08:01;;;;;;;0.00;0.00;;;3.70;99.90;;;;;;6190242;23;19993;-68
2022/01/06 17:10:28;;;;;;;0.00;0.00;;;3.70;99.90;;;;;;6189169;23;19993;-69
2022/01/06 17:12:56;;;;;;;0.00;0.00;;;3.60;99.90;;;;;;6190059;23;19985;-69
2022/01/06 17:15:23;;;;;;;0.00;0.00;;;3.60;99.90;;;;;;6163104;23;20153;-70
2022/01/06 17:17:49;;;;;;;0.00;0.00;;;3.60;99.90;;;;;;6189886;23;20012;-69
2022/01/06 17:20:15;;;;;;;0.00;0.00;;;3.60;99.90;;;;;;6189022;23;19989;-69
2022/01/06 17:22:41;;;;;;;0.00;0.00;;;3.70;99.90;;;;;;6163044;23;20000;-70
2022/01/06 17:25:08;;;;;;;0.00;0.00;;;3.60;99.90;;;;;;6189599;23;19993;-69
2022/01/06 17:27:34;;;;;;;0.00;0.00;;;3.60;99.90;;;;;;6187656;23;19997;-69
2022/01/06 17:29:59;;;;;;;0.00;0.00;;;3.60;99.90;;;;;;6189761;23;20049;-69
2022/01/06 17:32:27;;;;;;;0.00;0.00;;;3.60;99.90;;;;;;6188493;23;19993;-69
2022/01/06 17:34:53;;;;;;;0.00;0.00;;;3.50;99.90;;;;;;6190146;23;19989;-70
2022/01/06 17:37:20;;;;;;;0.00;0.00;;;3.50;99.90;;;;;;6188872;23;20016;-69
2022/01/06 17:39:47;;;;;;;0.00;0.00;;;3.40;99.90;;;;;;6189720;23;20035;-69
2022/01/06 17:42:13;;;;;;;0.00;0.00;;;3.40;99.90;;;;;;6189577;23;20040;-68
2022/01/06 17:44:42;;;;;;;0.00;0.00;;;3.40;99.90;;;;;;6189057;23;20000;-67
2022/01/06 17:47:10;;;;;;;0.00;0.00;;;3.40;99.90;;;;;;6163132;23;19997;-69
2022/01/06 17:49:37;;;;;;;0.00;0.00;;;3.40;99.90;;;;;;6189049;23;20179;-69
2022/01/06 17:52:03;;;;;;;0.00;0.00;;;3.50;99.90;;;;;;6182546;23;20005;-69
2022/01/06 17:54:29;;;;;;;0.00;0.00;;;3.40;99.90;;;;;;6189402;23;20000;-69
2022/01/06 17:56:55;;;;;;;0.00;0.00;;;3.40;99.90;;;;;;6188486;23;19997;-69
2022/01/06 17:59:24;;;;;;;0.00;0.00;;;3.30;99.90;;;;;;6187176;23;20275;-68
2022/01/06 18:01:50;;;;;;;;;;;3.30;99.90;;;;;;6190078;23;20149;-67
2022/01/06 18:04:16;;;;;;;0.00;0.00;;;3.30;99.90;;;;;;6187444;23;19924;-70
2022/01/06 18:06:43;;;;;;;0.00;0.00;;;3.20;99.90;;;;;;6188643;23;20337;-70
2022/01/06 18:11:38;;;;;;;;;;;3.20;99.90;;;;;;6191977;23;19997;-69
2022/01/06 18:14:09;;;;;;;0.00;0.00;;;3.20;99.90;;;;;;6189799;23;20085;-70
2022/01/06 18:16:38;;;;;;;0.00;0.00;;;3.20;99.90;;;;;;6191135;23;20120;-71
2022/01/06 18:21:48;;;;;;;0.00;0.00;;;3.10;99.90;;;;;;6191364;23;20221;-71
2022/01/06 18:24:15;;;;;;;0.00;0.00;;;3.10;99.90;;;;;;6191248;23;19992;-70
2022/01/06 18:26:41;;;;;;;0.00;0.00;;;3.10;99.90;;;;;;6191666;23;20264;-69
2022/01/06 18:29:08;;;;;;;0.00;0.00;;;3.10;99.90;;;;;;6191113;23;19999;-68
2022/01/06 18:31:35;;;;;;;0.00;0.00;;;3.10;99.90;;;;;;6189544;23;20065;-67
2022/01/06 18:34:01;;;;;;;0.00;0.00;;;3.10;99.90;;;;;;6191684;23;19988;-68
2022/01/06 18:36:26;;;;;;;0.00;0.00;;;3.00;99.90;;;;;;6188988;23;19993;-70
2022/01/06 18:38:53;;;;;;;0.00;0.00;;;3.10;99.90;;;;;;6189510;23;20055;-66
2022/01/06 18:41:19;;;;;;;0.00;0.00;;;3.00;99.90;;;;;;6189230;23;19997;-68
2022/01/06 18:43:45;;;;;;;0.00;0.00;;;3.00;99.90;;;;;;6191487;23;20036;-71
2022/01/06 18:46:12;;;;;;;0.00;0.00;;;3.00;99.90;;;;;;6191411;23;20013;-67
2022/01/06 18:48:40;;;;;;;0.00;0.00;;;3.00;99.90;;;;;;6189520;23;20000;-71
2022/01/06 18:51:06;;;;;;;0.00;0.00;;;3.00;99.90;;;;;;6189587;23;20009;-72
2022/01/06 18:53:32;;;;;;;0.00;0.00;;;3.00;99.90;;;;;;6190243;23;20123;-69
2022/01/06 18:55:59;;;;;;;0.00;0.00;;;2.90;99.90;;;;;;6191103;23;20043;-70
2022/01/06 18:58:25;;;;;;;0.00;0.00;;;2.90;99.90;;;;;;6189211;23;20276;-80
2022/01/06 19:00:51;;;;;;;0.00;0.00;;;2.90;99.90;;;;;;6190439;23;20088;-71
2022/01/06 19:03:17;;;;;;;0.00;0.00;;;2.90;99.90;;;;;;6190855;23;19989;-71
2022/01/06 19:05:43;;;;;;;0.00;0.00;;;2.90;99.90;;;;;;6191184;23;20008;-73
2022/01/06 19:08:09;;;;;;;0.00;0.00;;;2.90;99.90;;;;;;6189937;23;19997;-72
2022/01/06 19:10:35;;;;;;;0.00;0.00;;;2.90;99.90;;;;;;6188805;23;20021;-71
2022/01/06 19:13:03;;;;;;;0.00;0.00;;;2.90;99.90;;;;;;6191258;23;19989;-69
2022/01/06 19:15:30;;;;;;;0.00;0.00;;;2.80;99.90;;;;;;6191059;23;19996;-70
2022/01/06 19:18:01;;;;;;;0.00;0.00;;;2.80;99.90;;;;;;6191060;23;19992;-78
2022/01/06 19:20:28;;;;;;;0.00;0.00;;;2.80;99.90;;;;;;6189339;23;19989;-73
2022/01/06 19:22:54;;;;;;;0.00;0.00;;;2.80;99.90;;;;;;6189122;23;20284;-71
2022/01/06 19:25:20;;;;;;;0.00;0.00;;;2.80;99.90;;;;;;6190808;23;20117;-69
2022/01/06 19:27:46;;;;;;;0.00;0.00;;;2.80;99.90;;;;;;6191335;23;20000;-71
2022/01/06 19:30:14;;;;;;;0.00;0.00;;;2.70;99.90;;;;;;6191406;23;20064;-71
2022/01/06 19:32:43;;;;;;;0.00;0.00;;;2.70;99.90;;;;;;6192038;23;19989;-72
2022/01/06 19:35:15;;;;;;;0.00;0.00;;;2.70;99.90;;;;;;6190205;23;20005;-72
2022/01/06 19:37:40;;;;;;;0.00;0.00;;;2.70;99.90;;;;;;6190214;23;19997;-73
2022/01/06 19:40:10;;;;;;;0.00;0.00;;;2.70;99.90;;;;;;6189464;23;20208;-77
2022/01/06 19:42:41;;;;;;;0.00;0.00;;;2.70;99.90;;;;;;6188784;23;20103;-74
2022/01/06 19:45:08;;;;;;;0.00;0.00;;;2.70;99.90;;;;;;6191178;23;19989;-73
2022/01/06 19:47:36;;;;;;;0.00;0.00;;;2.70;99.90;;;;;;6190231;23;20045;-71
2022/01/06 19:50:08;;;;;;;0.00;0.00;;;2.70;99.90;;;;;;6190859;23;20044;-71
2022/01/06 19:52:34;;;;;;;0.00;0.00;;;2.70;99.90;;;;;;6186511;23;20325;-71
2022/01/06 19:54:59;;;;;;;0.00;0.00;;;2.70;99.90;;;;;;6191113;23;19993;-71
2022/01/06 19:57:25;;;;;;;0.00;0.00;;;2.70;99.90;;;;;;6188074;23;20028;-71
2022/01/06 19:59:51;;;;;;;0.00;0.00;;;2.80;99.90;;;;;;6189163;23;20207;-71
2022/01/06 20:02:17;;;;;;;0.00;0.00;;;2.80;99.90;;;;;;6188536;23;20287;-71
2022/01/06 20:04:44;;;;;;;0.00;0.00;;;2.70;99.90;;;;;;6189368;23;20016;-71
2022/01/06 20:07:10;;;;;;;0.00;0.00;;;2.70;99.90;;;;;;6189382;23;19997;-72
2022/01/06 20:09:36;;;;;;;0.00;0.00;;;2.70;99.90;;;;;;6187997;23;20104;-72
2022/01/06 20:12:01;;;;;;;0.00;0.00;;;2.70;99.90;;;;;;6188800;23;20060;-70
2022/01/06 20:14:27;;;;;;;0.00;0.00;;;2.70;99.90;;;;;;6188568;23;20001;-70
2022/01/06 20:16:53;;;;;;;0.00;0.00;;;2.70;99.90;;;;;;6190281;23;19996;-68
2022/01/06 20:19:19;;;;;;;0.00;0.00;;;2.70;99.90;;;;;;6189448;23;19996;-71
2022/01/06 20:21:45;;;;;;;0.00;0.00;;;2.60;99.90;;;;;;6190722;23;20044;-70
2022/01/06 20:24:11;;;;;;;0.00;0.00;;;2.70;99.90;;;;;;6189879;23;19993;-71
2022/01/06 20:26:39;;;;;;;0.00;0.00;;;2.70;99.90;;;;;;6189422;23;20303;-71
2022/01/06 20:29:05;;;;;;;0.00;0.00;;;2.70;99.90;;;;;;6190240;23;20020;-71
2022/01/06 20:31:31;;;;;;;0.00;0.00;;;2.60;99.90;;;;;;6187555;23;20056;-70
2022/01/06 20:33:57;;;;;;;0.00;0.00;;;2.60;99.90;;;;;;6190090;23;20180;-71
2022/01/06 20:36:24;;;;;;;0.00;0.00;;;2.60;99.90;;;;;;6189566;23;19997;-71
2022/01/06 20:38:50;;;;;;;0.00;0.00;;;2.50;99.90;;;;;;6188985;23;19993;-68
2022/01/06 20:41:16;;;;;;;0.00;0.00;;;2.60;99.90;;;;;;6189861;23;19985;-70
2022/01/06 20:43:41;;;;;;;0.00;0.00;;;2.50;99.90;;;;;;6190197;23;20005;-69
2022/01/06 20:46:10;;;;;;;0.00;0.00;;;2.50;99.90;;;;;;6188741;23;20065;-70
2022/01/06 20:51:22;;;;;;;0.00;0.00;;;2.50;99.90;;;;;;6189641;23;20020;-70
2022/01/06 20:53:55;;;;;;;0.00;0.00;;;2.50;99.90;;;;;;6163842;23;20079;-70
2022/01/06 20:56:22;;;;;;;0.00;0.00;;;2.50;99.90;;;;;;6163382;23;20020;-71
2022/01/06 20:58:49;;;;;;;0.00;0.00;;;2.50;99.90;;;;;;6163570;23;20053;-70
2022/01/06 21:01:16;;;;;;;0.00;0.00;;;2.50;99.90;;;;;;6163783;23;19992;-71
2022/01/06 21:03:42;;;;;;;0.00;0.00;;;2.50;99.90;;;;;;6189809;23;19997;-71
2022/01/06 21:06:08;;;;;;;0.00;0.00;;;2.50;99.90;;;;;;6190098;23;20051;-70
2022/01/06 21:08:35;;;;;;;0.00;0.00;;;2.50;99.90;;;;;;6189354;23;20048;-70
2022/01/06 21:11:01;;;;;;;0.00;0.00;;;2.40;99.90;;;;;;6190036;23;19988;-70
2022/01/06 21:13:27;;;;;;;0.00;0.00;;;2.40;99.90;;;;;;6188476;23;20064;-70
2022/01/06 21:15:54;;;;;;;0.00;0.00;;;2.40;99.90;;;;;;6190221;23;20207;-70
2022/01/06 21:18:20;;;;;;;0.00;0.00;;;2.40;99.90;;;;;;6163265;23;19996;-70
2022/01/06 21:20:46;;;;;;;0.00;0.00;;;2.40;99.90;;;;;;6163366;23;20054;-70
2022/01/06 21:23:12;;;;;;;0.00;0.00;;;2.40;99.90;;;;;;6189748;23;20048;-70
2022/01/06 21:25:38;;;;;;;0.00;0.00;;;2.40;99.90;;;;;;6162730;23;20060;-71
2022/01/06 21:28:05;;;;;;;0.00;0.00;;;2.40;99.90;;;;;;6189890;23;19993;-70
2022/01/06 21:30:31;;;;;;;0.00;0.00;;;2.40;99.90;;;;;;6189394;23;19993;-70
2022/01/06 21:32:57;;;;;;;0.00;0.00;;;2.40;99.90;;;;;;6189777;23;19989;-71
2022/01/06 21:35:24;;;;;;;0.00;0.00;;;2.30;99.90;;;;;;6189066;23;19985;-71
2022/01/06 21:37:50;;;;;;;0.00;0.00;;;2.30;99.90;;;;;;6189837;23;20111;-71
2022/01/06 21:40:18;;;;;;;0.00;0.00;;;2.30;99.90;;;;;;6188999;23;19996;-71
2022/01/06 21:42:44;;;;;;;0.00;0.00;;;2.30;99.90;;;;;;6189296;23;20001;-72
2022/01/06 21:45:13;;;;;;;0.00;0.00;;;2.30;99.90;;;;;;6189772;23;20175;-71
2022/01/06 21:47:41;;;;;;;0.00;0.00;;;2.30;99.90;;;;;;6188938;23;20323;-71
2022/01/06 21:50:17;;;;;;;0.00;0.00;;;2.30;99.90;;;;;;6189164;23;19993;-69
2022/01/06 21:52:44;;;;;;;0.00;0.00;;;2.20;99.90;;;;;;6163413;23;19997;-71
2022/01/06 21:55:10;;;;;;;0.00;0.00;;;2.30;99.90;;;;;;6163332;23;19997;-71
2022/01/06 21:57:37;;;;;;;0.00;0.00;;;2.20;99.90;;;;;;6188787;23;20280;-70
2022/01/06 22:00:07;;;;;;;0.00;0.00;;;2.20;99.90;;;;;;6189755;23;20287;-70
2022/01/06 22:02:33;;;;;;;0.00;0.00;;;2.20;99.90;;;;;;6162678;23;19989;-70
2022/01/06 22:04:59;;;;;;;0.00;0.00;;;2.20;99.90;;;;;;6163242;23;20017;-70
2022/01/06 22:07:25;;;;;;;0.00;0.00;;;2.20;99.90;;;;;;6161983;23;19997;-69
2022/01/06 22:09:52;;;;;;;0.00;0.00;;;2.10;99.90;;;;;;6163385;23;20004;-70
2022/01/06 22:12:18;;;;;;;0.00;0.00;;;2.10;99.90;;;;;;6162952;23;19990;-72
2022/01/06 22:14:46;;;;;;;0.00;0.00;;;2.10;99.90;;;;;;6188820;23;20298;-70
2022/01/06 22:17:13;;;;;;;0.00;0.00;;;2.10;99.90;;;;;;6163541;23;20195;-70
2022/01/06 22:19:38;;;;;;;0.00;0.00;;;2.10;99.90;;;;;;6138287;23;20303;-70
2022/01/06 22:22:04;;;;;;;0.00;0.00;;;2.10;99.90;;;;;;6162410;23;20211;-71
2022/01/06 22:24:30;;;;;;;0.00;0.00;;;2.10;99.90;;;;;;6162102;23;20215;-71
2022/01/06 22:26:56;;;;;;;0.00;0.00;;;2.10;99.90;;;;;;6189350;23;20043;-70
2022/01/06 22:29:22;;;;;;;0.00;0.00;;;2.10;99.90;;;;;;6163094;23;19997;-71
2022/01/06 22:31:48;;;;;;;0.00;0.00;;;2.10;99.90;;;;;;6163141;23;19998;-72
2022/01/06 22:34:13;;;;;;;0.00;0.00;;;2.10;99.90;;;;;;6163340;23;20413;-71
2022/01/06 22:36:58;;;;;;;0.00;0.00;;;2.00;99.90;;;;;;6189228;23;20045;-70
2022/01/06 22:39:25;;;;;;;0.00;0.00;;;2.10;99.90;;;;;;6189636;23;20270;-73
2022/01/06 22:41:51;;;;;;;0.00;0.00;;;2.10;99.90;;;;;;6163799;23;20009;-71
2022/01/06 22:44:17;;;;;;;0.00;0.00;;;2.00;99.90;;;;;;6189057;23;19989;-69
2022/01/06 22:46:43;;;;;;;0.00;0.00;;;2.00;99.90;;;;;;6192825;23;20183;-71
2022/01/06 22:49:11;;;;;;;0.00;0.00;;;2.00;99.90;;;;;;6193736;23;19997;-71
2022/01/06 22:51:36;;;;;;;0.00;0.00;;;2.10;99.90;;;;;;6193428;23;20310;-72
2022/01/06 22:54:02;;;;;;;0.00;0.00;;;2.00;99.90;;;;;;6169269;23;19997;-70
2022/01/06 22:56:28;;;;;;;0.00;0.00;;;2.00;99.90;;;;;;6195547;23;20184;-72
2022/01/06 22:58:54;;;;;;;0.00;0.00;;;2.00;99.90;;;;;;6145421;23;19994;-71
2022/01/06 23:01:20;;;;;;;0.00;0.00;;;2.00;99.90;;;;;;6195353;23;19989;-71
2022/01/06 23:03:45;;;;;;;0.00;0.00;;;2.00;99.90;;;;;;6169655;23;19993;-70
2022/01/06 23:06:12;;;;;;;0.00;0.00;;;2.00;99.90;;;;;;6169461;23;20161;-72
2022/01/06 23:08:41;;;;;;;0.00;0.00;;;2.00;99.90;;;;;;6195361;23;19997;-70
2022/01/06 23:11:07;;;;;;;0.00;0.00;;;1.90;99.90;;;;;;6195862;23;19989;-70
2022/01/06 23:13:33;;;;;;;0.00;0.00;;;1.90;99.90;;;;;;6169022;23;19993;-72
2022/01/06 23:15:58;;;;;;;0.00;0.00;;;1.90;99.90;;;;;;6195894;23;20283;-70
2022/01/06 23:18:24;;;;;;;0.00;0.00;;;1.90;99.90;;;;;;6168828;23;20175;-71
2022/01/06 23:20:50;;;;;;;0.00;0.00;;;1.90;99.90;;;;;;6195615;23;19985;-71
2022/01/06 23:23:19;;;;;;;0.00;0.00;;;1.90;99.90;;;;;;6195616;23;20212;-70
2022/01/06 23:25:45;;;;;;;0.00;0.00;;;1.90;99.90;;;;;;6195364;23;19989;-70
2022/01/06 23:28:11;;;;;;;0.00;0.00;;;1.90;99.90;;;;;;6195875;23;20016;-69
2022/01/06 23:30:37;;;;;;;0.00;0.00;;;1.90;99.90;;;;;;6194898;23;20056;-70
2022/01/06 23:33:03;;;;;;;0.00;0.00;;;1.90;99.90;;;;;;6195795;23;19993;-70
2022/01/06 23:35:29;;;;;;;0.00;0.00;;;1.80;99.90;;;;;;6195181;23;20264;-71
2022/01/06 23:37:55;;;;;;;0.00;0.00;;;1.80;99.90;;;;;;6169181;23;19997;-70
2022/01/06 23:40:22;;;;;;;0.00;0.00;;;1.80;99.90;;;;;;6195238;23;20040;-69
2022/01/06 23:42:49;;;;;;;0.00;0.00;;;1.90;99.90;;;;;;6195222;23;19989;-69
2022/01/06 23:45:18;;;;;;;0.00;0.00;;;1.80;99.90;;;;;;6195396;23;20074;-70
2022/01/06 23:47:45;;;;;;;0.00;0.00;;;1.90;99.90;;;;;;6194599;23;20358;-70
2022/01/06 23:50:13;;;;;;;0.00;0.00;;;1.80;99.90;;;;;;6195424;23;19996;-67
2022/01/06 23:52:39;;;;;;;0.00;0.00;;;1.80;99.90;;;;;;6194555;23;19993;-68
2022/01/06 23:55:06;;;;;;;0.00;0.00;;;1.80;99.90;;;;;;6168985;23;19989;-69
2022/01/06 23:57:33;;;;;;;0.00;0.00;;;1.80;99.90;;;;;;6194469;23;20314;-72
2022/01/06 23:59:59;;;;;;;0.00;0.00;;;1.80;99.90;;;;;;6169236;23;20212;-72
